createdAt,value
2023-01-19T00:00:16.781Z,1.75
2023-01-19T00:01:16.843Z,1.71
2023-01-19T00:02:16.991Z,1.77
2023-01-19T00:03:17.168Z,1.79
2023-01-19T00:04:17.342Z,1.79
2023-01-19T00:05:17.521Z,1.74
2023-01-19T00:06:17.704Z,1.68
2023-01-19T00:07:17.769Z,1.64
2023-01-19T00:08:17.936Z,1.65
2023-01-19T00:09:18.074Z,1.67
2023-01-19T00:10:18.141Z,1.70
2023-01-19T00:11:18.309Z,1.67
2023-01-19T00:12:18.471Z,1.67
2023-01-19T00:13:18.634Z,1.74
2023-01-19T00:14:18.838Z,1.72
2023-01-19T00:15:18.921Z,1.75
2023-01-19T00:16:19.139Z,1.81
2023-01-19T00:17:19.188Z,1.83
2023-01-19T00:18:19.376Z,1.79
2023-01-19T00:19:19.520Z,1.82
2023-01-19T00:20:19.707Z,1.81
2023-01-19T00:21:19.861Z,1.79
2023-01-19T00:22:20.023Z,1.92
2023-01-19T00:23:20.163Z,1.98
2023-01-19T00:24:20.356Z,1.98
2023-01-19T00:25:20.542Z,1.95
2023-01-19T00:26:20.547Z,1.90
2023-01-19T00:27:20.705Z,1.83
2023-01-19T00:28:20.860Z,1.85
2023-01-19T00:29:21.045Z,1.85
2023-01-19T00:30:21.167Z,1.85
2023-01-19T00:31:21.284Z,1.82
2023-01-19T00:32:21.379Z,1.82
2023-01-19T00:33:21.548Z,1.82
2023-01-19T00:34:21.722Z,1.85
2023-01-19T00:35:21.863Z,1.81
2023-01-19T00:36:22.046Z,1.79
2023-01-19T00:37:22.202Z,1.82
2023-01-19T00:38:22.347Z,1.83
2023-01-19T00:39:22.456Z,1.85
2023-01-19T00:40:22.613Z,1.89
2023-01-19T00:41:22.683Z,1.93
2023-01-19T00:42:22.855Z,1.95
2023-01-19T00:43:22.947Z,1.95
2023-01-19T00:44:23.105Z,2.02
2023-01-19T00:45:23.338Z,2.05
2023-01-19T00:46:23.404Z,2.09
2023-01-19T00:47:23.585Z,2.11
2023-01-19T00:48:23.735Z,2.11
2023-01-19T00:49:23.844Z,2.07
2023-01-19T00:50:23.951Z,2.05
2023-01-19T00:51:24.106Z,2.07
2023-01-19T00:52:32.868Z,2.04
2023-01-19T00:53:24.404Z,2.07
2023-01-19T00:54:26.325Z,2.07
2023-01-19T00:55:24.662Z,2.05
2023-01-19T00:56:24.834Z,2.07
2023-01-19T00:57:24.988Z,2.05
2023-01-19T00:58:25.118Z,2.05
2023-01-19T00:59:25.235Z,2.11
2023-01-19T01:00:25.382Z,2.11
2023-01-19T01:01:45.968Z,2.18
2023-01-19T01:02:26.940Z,2.19
2023-01-19T01:03:25.864Z,2.19
2023-01-19T01:04:25.985Z,2.19
2023-01-19T01:05:26.154Z,2.26
2023-01-19T01:06:26.304Z,2.26
2023-01-19T01:07:26.426Z,2.29
2023-01-19T01:08:26.578Z,2.30
2023-01-19T01:09:26.694Z,2.27
2023-01-19T01:10:26.822Z,2.30
2023-01-19T01:11:26.939Z,2.29
2023-01-19T01:12:27.076Z,2.29
2023-01-19T01:13:27.999Z,2.32
2023-01-19T01:14:27.436Z,2.33
2023-01-19T01:15:27.578Z,2.33
2023-01-19T01:16:27.708Z,2.32
2023-01-19T01:17:27.731Z,2.29
2023-01-19T01:18:27.866Z,2.29
2023-01-19T01:19:27.988Z,2.29
2023-01-19T01:20:28.306Z,2.29
2023-01-19T01:21:28.298Z,2.32
2023-01-19T01:22:28.440Z,2.32
2023-01-19T01:23:28.560Z,2.32
2023-01-19T01:24:28.711Z,2.29
2023-01-19T01:25:28.858Z,2.32
2023-01-19T01:26:29.007Z,2.30
2023-01-19T01:27:29.132Z,2.26
2023-01-19T01:28:29.252Z,2.26
2023-01-19T01:29:29.402Z,2.27
2023-01-19T01:30:29.553Z,2.29
2023-01-19T01:31:29.727Z,2.29
2023-01-19T01:32:29.810Z,2.33
2023-01-19T01:33:40.607Z,2.33
2023-01-19T01:34:31.136Z,2.33
2023-01-19T01:35:30.250Z,2.36
2023-01-19T01:36:30.389Z,2.33
2023-01-19T01:37:30.542Z,2.33
2023-01-19T01:38:30.679Z,2.32
2023-01-19T01:39:30.810Z,2.32
2023-01-19T01:40:30.941Z,2.36
2023-01-19T01:41:32.078Z,2.38
2023-01-19T01:42:31.194Z,2.38
2023-01-19T01:43:31.337Z,2.41
2023-01-19T01:44:31.518Z,2.37
2023-01-19T01:45:31.658Z,2.33
2023-01-19T01:46:31.774Z,2.33
2023-01-19T01:47:31.940Z,2.33
2023-01-19T01:48:32.087Z,2.32
2023-01-19T01:49:32.242Z,2.29
2023-01-19T01:50:32.382Z,2.26
2023-01-19T01:51:32.527Z,2.26
2023-01-19T01:52:32.698Z,2.25
2023-01-19T01:53:32.858Z,2.25
2023-01-19T01:54:33.010Z,2.22
2023-01-19T01:55:33.138Z,2.20
2023-01-19T01:56:33.308Z,2.23
2023-01-19T01:57:33.470Z,2.20
2023-01-19T01:58:33.626Z,2.19
2023-01-19T01:59:33.768Z,2.12
2023-01-19T02:00:33.889Z,2.11
2023-01-19T02:01:34.285Z,2.09
2023-01-19T02:02:34.165Z,2.11
2023-01-19T02:03:34.338Z,2.11
2023-01-19T02:04:34.444Z,2.14
2023-01-19T02:05:34.574Z,2.15
2023-01-19T02:06:34.723Z,2.19
2023-01-19T02:07:34.845Z,2.20
2023-01-19T02:08:35.025Z,2.20
2023-01-19T02:09:35.095Z,2.23
2023-01-19T02:10:35.228Z,2.26
2023-01-19T02:11:35.372Z,2.30
2023-01-19T02:12:35.527Z,2.29
2023-01-19T02:13:35.675Z,2.30
2023-01-19T02:14:35.795Z,2.33
2023-01-19T02:15:35.866Z,2.36
2023-01-19T02:16:36.112Z,2.36
2023-01-19T02:17:36.211Z,2.38
2023-01-19T02:18:36.351Z,2.38
2023-01-19T02:19:36.479Z,2.36
2023-01-19T02:20:36.624Z,2.32
2023-01-19T02:21:36.826Z,2.32
2023-01-19T02:22:36.893Z,2.33
2023-01-19T02:23:36.986Z,2.32
2023-01-19T02:24:37.144Z,2.32
2023-01-19T02:25:37.287Z,2.32
2023-01-19T02:26:37.416Z,2.29
2023-01-19T02:27:37.575Z,2.27
2023-01-19T02:28:37.731Z,2.25
2023-01-19T02:29:37.871Z,2.25
2023-01-19T02:30:38.057Z,2.23
2023-01-19T02:31:38.167Z,2.25
2023-01-19T02:32:38.348Z,2.23
2023-01-19T02:33:38.468Z,2.23
2023-01-19T02:34:38.627Z,2.27
2023-01-19T02:35:38.786Z,2.30
2023-01-19T02:36:38.932Z,2.32
2023-01-19T02:37:39.085Z,2.33
2023-01-19T02:38:39.200Z,2.33
2023-01-19T02:39:39.354Z,2.37
2023-01-19T02:40:39.442Z,2.37
2023-01-19T02:41:39.593Z,2.40
2023-01-19T02:42:39.745Z,2.40
2023-01-19T02:43:39.913Z,2.40
2023-01-19T02:44:40.033Z,2.41
2023-01-19T02:45:40.440Z,2.43
2023-01-19T02:46:40.280Z,2.43
2023-01-19T02:47:40.412Z,2.40
2023-01-19T02:48:40.555Z,2.43
2023-01-19T02:49:40.702Z,2.38
2023-01-19T02:50:40.837Z,2.41
2023-01-19T02:51:40.980Z,2.43
2023-01-19T02:52:41.114Z,2.44
2023-01-19T02:53:41.260Z,2.41
2023-01-19T02:54:41.397Z,2.37
2023-01-19T02:55:41.590Z,2.40
2023-01-19T02:56:41.721Z,2.38
2023-01-19T02:57:41.873Z,2.40
2023-01-19T02:58:42.007Z,2.40
2023-01-19T02:59:42.147Z,2.36
2023-01-19T03:00:42.339Z,2.36
2023-01-19T03:01:42.528Z,2.32
2023-01-19T03:02:42.641Z,2.30
2023-01-19T03:03:42.734Z,2.29
2023-01-19T03:04:42.849Z,2.29
2023-01-19T03:05:43.019Z,2.27
2023-01-19T03:06:43.149Z,2.26
2023-01-19T03:07:43.306Z,2.23
2023-01-19T03:08:43.458Z,2.22
2023-01-19T03:09:43.633Z,2.22
2023-01-19T03:10:43.768Z,2.20
2023-01-19T03:11:43.919Z,2.19
2023-01-19T03:12:44.065Z,2.18
2023-01-19T03:13:44.218Z,2.15
2023-01-19T03:14:44.348Z,2.15
2023-01-19T03:15:44.637Z,2.12
2023-01-19T03:16:44.707Z,2.11
2023-01-19T03:17:44.835Z,2.08
2023-01-19T03:18:44.953Z,2.08
2023-01-19T03:19:45.137Z,2.07
2023-01-19T03:20:45.296Z,2.01
2023-01-19T03:21:47.325Z,2.00
2023-01-19T03:22:45.625Z,1.98
2023-01-19T03:23:45.755Z,1.98
2023-01-19T03:24:45.913Z,2.01
2023-01-19T03:25:46.007Z,2.00
2023-01-19T03:26:46.154Z,2.01
2023-01-19T03:27:46.293Z,1.98
2023-01-19T03:28:46.414Z,2.00
2023-01-19T03:29:46.536Z,2.01
2023-01-19T03:30:46.796Z,2.01
2023-01-19T03:31:46.841Z,2.01
2023-01-19T03:32:47.009Z,2.01
2023-01-19T03:33:47.103Z,2.07
2023-01-19T03:34:47.235Z,2.08
2023-01-19T03:35:47.379Z,2.07
2023-01-19T03:36:47.555Z,2.08
2023-01-19T03:37:47.650Z,2.08
2023-01-19T03:38:47.789Z,2.08
2023-01-19T03:39:48.005Z,2.08
2023-01-19T03:40:48.093Z,2.07
2023-01-19T03:41:48.243Z,2.08
2023-01-19T03:42:48.424Z,2.09
2023-01-19T03:43:48.552Z,2.11
2023-01-19T03:44:48.696Z,2.14
2023-01-19T03:45:48.904Z,2.15
2023-01-19T03:46:49.012Z,2.18
2023-01-19T03:47:49.255Z,2.15
2023-01-19T03:48:49.295Z,2.18
2023-01-19T03:49:49.428Z,2.22
2023-01-19T03:50:49.580Z,2.23
2023-01-19T03:51:49.718Z,2.22
2023-01-19T03:52:49.861Z,2.23
2023-01-19T03:53:50.005Z,2.22
2023-01-19T03:54:50.149Z,2.23
2023-01-19T03:55:50.277Z,2.22
2023-01-19T03:56:50.413Z,2.23
2023-01-19T03:57:50.577Z,2.25
2023-01-19T03:58:50.736Z,2.25
2023-01-19T03:59:50.889Z,2.26
2023-01-19T04:00:51.049Z,2.26
2023-01-19T04:01:51.223Z,2.26
2023-01-19T04:02:51.328Z,2.27
2023-01-19T04:03:51.414Z,2.26
2023-01-19T04:04:51.606Z,2.32
2023-01-19T04:05:51.686Z,2.36
2023-01-19T04:06:51.821Z,2.33
2023-01-19T04:07:52.038Z,2.33
2023-01-19T04:08:52.117Z,2.30
2023-01-19T04:09:52.264Z,2.30
2023-01-19T04:10:52.412Z,2.27
2023-01-19T04:11:52.527Z,2.26
2023-01-19T04:12:52.658Z,2.15
2023-01-19T04:13:52.873Z,2.05
2023-01-19T04:14:52.940Z,1.98
2023-01-19T04:15:53.109Z,1.90
2023-01-19T04:16:53.167Z,1.83
2023-01-19T04:17:53.315Z,1.77
2023-01-19T04:18:53.470Z,1.67
2023-01-19T04:19:53.617Z,1.60
2023-01-19T04:20:53.754Z,1.50
2023-01-19T04:21:53.923Z,1.44
2023-01-19T04:22:54.075Z,1.38
2023-01-19T04:23:54.277Z,1.32
2023-01-19T04:24:54.468Z,1.25
2023-01-19T04:25:54.549Z,1.21
2023-01-19T04:26:54.684Z,1.16
2023-01-19T04:27:54.856Z,1.08
2023-01-19T04:28:54.973Z,1.07
2023-01-19T04:29:55.112Z,1.07
2023-01-19T04:30:55.337Z,0.99
2023-01-19T04:31:55.480Z,0.95
2023-01-19T04:32:55.553Z,0.96
2023-01-19T04:33:55.676Z,0.96
2023-01-19T04:34:55.865Z,0.95
2023-01-19T04:35:56.061Z,0.95
2023-01-19T04:36:56.183Z,0.95
2023-01-19T04:37:56.272Z,0.96
2023-01-19T04:38:56.480Z,0.93
2023-01-19T04:39:56.631Z,0.90
2023-01-19T04:40:56.781Z,0.95
2023-01-19T04:41:56.903Z,0.92
2023-01-19T04:42:57.021Z,0.93
2023-01-19T04:43:57.189Z,0.93
2023-01-19T04:44:57.336Z,0.90
2023-01-19T04:45:57.453Z,0.89
2023-01-19T04:46:57.576Z,0.89
2023-01-19T04:47:57.718Z,0.89
2023-01-19T04:48:57.863Z,0.92
2023-01-19T04:49:58.005Z,0.90
2023-01-19T04:50:58.088Z,0.89
2023-01-19T04:51:58.226Z,0.86
2023-01-19T04:52:58.746Z,0.89
2023-01-19T04:53:58.572Z,0.88
2023-01-19T04:54:58.709Z,0.90
2023-01-19T04:55:58.879Z,0.89
2023-01-19T04:56:59.031Z,0.88
2023-01-19T04:57:59.221Z,0.90
2023-01-19T04:59:00.117Z,0.89
2023-01-19T04:59:59.483Z,0.92
2023-01-19T05:00:59.671Z,0.95
2023-01-19T05:01:59.836Z,0.93
2023-01-19T05:03:00.461Z,0.95
2023-01-19T05:04:00.092Z,0.93
2023-01-19T05:05:00.212Z,0.95
2023-01-19T05:06:00.368Z,0.95
2023-01-19T05:07:00.515Z,0.98
2023-01-19T05:08:00.664Z,1.00
2023-01-19T05:09:00.794Z,0.99
2023-01-19T05:10:00.938Z,0.95
2023-01-19T05:11:01.046Z,0.99
2023-01-19T05:12:01.210Z,1.00
2023-01-19T05:13:01.742Z,0.99
2023-01-19T05:14:01.529Z,1.00
2023-01-19T05:15:01.709Z,1.00
2023-01-19T05:16:01.893Z,0.99
2023-01-19T05:17:01.959Z,0.99
2023-01-19T05:18:02.087Z,0.99
2023-01-19T05:19:02.237Z,0.99
2023-01-19T05:20:02.416Z,1.00
2023-01-19T05:21:02.492Z,0.99
2023-01-19T05:22:02.617Z,0.99
2023-01-19T05:23:03.280Z,1.02
2023-01-19T05:24:02.846Z,1.02
2023-01-19T05:25:02.999Z,1.04
2023-01-19T05:26:03.164Z,1.02
2023-01-19T05:27:03.327Z,0.99
2023-01-19T05:28:03.431Z,1.00
2023-01-19T05:29:03.585Z,1.00
2023-01-19T05:30:03.722Z,1.00
2023-01-19T05:31:03.998Z,1.00
2023-01-19T05:32:04.051Z,1.00
2023-01-19T05:33:04.103Z,1.00
2023-01-19T05:34:04.247Z,0.99
2023-01-19T05:35:04.357Z,1.04
2023-01-19T05:36:04.542Z,1.02
2023-01-19T05:37:04.689Z,1.06
2023-01-19T05:38:04.754Z,1.04
2023-01-19T05:39:04.904Z,1.00
2023-01-19T05:40:05.044Z,1.02
2023-01-19T05:41:05.245Z,1.06
2023-01-19T05:42:05.395Z,1.04
2023-01-19T05:43:05.684Z,1.02
2023-01-19T05:44:05.700Z,1.04
2023-01-19T05:45:05.844Z,1.00
2023-01-19T05:46:05.985Z,1.02
2023-01-19T05:47:06.144Z,1.00
2023-01-19T05:48:07.316Z,0.99
2023-01-19T05:49:06.391Z,0.98
2023-01-19T05:50:06.544Z,0.95
2023-01-19T05:51:06.669Z,0.95
2023-01-19T05:52:06.812Z,0.95
2023-01-19T05:53:07.010Z,0.95
2023-01-19T05:54:07.039Z,0.95
2023-01-19T05:55:07.140Z,0.95
2023-01-19T05:56:07.269Z,0.96
2023-01-19T05:57:07.409Z,0.95
2023-01-19T05:58:07.636Z,0.93
2023-01-19T05:59:07.709Z,0.93
2023-01-19T06:00:07.838Z,0.92
2023-01-19T06:01:07.977Z,0.95
2023-01-19T06:02:08.114Z,0.95
2023-01-19T06:03:08.269Z,0.95
2023-01-19T06:04:09.895Z,0.95
2023-01-19T06:05:08.601Z,0.96
2023-01-19T06:06:08.765Z,0.96
2023-01-19T06:07:08.888Z,0.96
2023-01-19T06:08:09.027Z,0.95
2023-01-19T06:09:09.187Z,0.98
2023-01-19T06:10:09.365Z,0.98
2023-01-19T06:11:09.508Z,0.96
2023-01-19T06:12:09.643Z,0.98
2023-01-19T06:13:09.785Z,0.96
2023-01-19T06:14:09.925Z,0.98
2023-01-19T06:15:10.078Z,0.99
2023-01-19T06:16:10.263Z,1.02
2023-01-19T06:17:10.398Z,1.04
2023-01-19T06:18:10.535Z,1.07
2023-01-19T06:19:10.706Z,1.02
2023-01-19T06:20:10.875Z,1.06
2023-01-19T06:21:10.968Z,1.06
2023-01-19T06:22:11.122Z,1.04
2023-01-19T06:23:11.246Z,1.06
2023-01-19T06:24:13.168Z,1.04
2023-01-19T06:25:11.534Z,1.04
2023-01-19T06:26:11.655Z,1.04
2023-01-19T06:27:11.774Z,1.07
2023-01-19T06:28:11.903Z,1.08
2023-01-19T06:29:12.022Z,1.07
2023-01-19T06:30:12.170Z,1.06
2023-01-19T06:31:12.310Z,1.02
2023-01-19T06:32:12.445Z,1.06
2023-01-19T06:33:12.583Z,1.02
2023-01-19T06:34:12.769Z,1.06
2023-01-19T06:35:12.842Z,1.02
2023-01-19T06:36:12.998Z,1.06
2023-01-19T06:37:13.112Z,1.02
2023-01-19T06:38:13.262Z,1.04
2023-01-19T06:39:13.401Z,1.04
2023-01-19T06:40:14.478Z,1.00
2023-01-19T06:41:13.692Z,1.04
2023-01-19T06:42:13.815Z,1.04
2023-01-19T06:43:13.944Z,1.02
2023-01-19T06:44:14.084Z,1.04
2023-01-19T06:45:14.236Z,1.04
2023-01-19T06:46:14.459Z,1.04
2023-01-19T06:47:15.937Z,1.06
2023-01-19T06:48:14.706Z,1.04
2023-01-19T06:49:14.836Z,1.04
2023-01-19T06:50:14.993Z,1.00
2023-01-19T06:51:16.032Z,1.02
2023-01-19T06:52:15.317Z,1.00
2023-01-19T06:53:23.034Z,1.06
2023-01-19T06:54:15.611Z,1.02
2023-01-19T06:55:16.315Z,1.04
2023-01-19T06:56:16.612Z,1.00
2023-01-19T06:57:16.037Z,0.99
2023-01-19T06:58:16.193Z,1.00
2023-01-19T06:59:16.357Z,1.04
2023-01-19T07:00:16.531Z,1.06
2023-01-19T07:01:16.786Z,1.10
2023-01-19T07:02:26.307Z,1.07
2023-01-19T07:03:18.059Z,1.07
2023-01-19T07:04:17.115Z,1.11
2023-01-19T07:05:17.255Z,1.11
2023-01-19T07:06:17.407Z,1.10
2023-01-19T07:07:17.526Z,1.10
2023-01-19T07:08:17.683Z,1.10
2023-01-19T07:09:17.806Z,1.10
2023-01-19T07:10:17.958Z,1.10
2023-01-19T07:11:22.362Z,1.08
2023-01-19T07:12:19.259Z,1.07
2023-01-19T07:13:18.377Z,1.07
2023-01-19T07:14:18.498Z,1.07
2023-01-19T07:15:18.670Z,1.10
2023-01-19T07:16:18.857Z,1.14
2023-01-19T07:17:18.983Z,1.14
2023-01-19T07:18:19.108Z,1.16
2023-01-19T07:19:19.280Z,1.14
2023-01-19T07:20:19.418Z,1.14
2023-01-19T07:21:19.553Z,1.13
2023-01-19T07:22:19.683Z,1.14
2023-01-19T07:23:19.791Z,1.16
2023-01-19T07:24:19.938Z,1.16
2023-01-19T07:25:20.099Z,1.13
2023-01-19T07:26:20.238Z,1.13
2023-01-19T07:27:21.089Z,1.10
2023-01-19T07:28:20.535Z,1.10
2023-01-19T07:29:20.662Z,1.07
2023-01-19T07:30:20.769Z,1.07
2023-01-19T07:31:21.070Z,1.00
2023-01-19T07:32:21.085Z,1.06
2023-01-19T07:33:21.255Z,1.06
2023-01-19T07:34:21.433Z,1.04
2023-01-19T07:35:21.608Z,1.00
2023-01-19T07:36:21.692Z,1.02
2023-01-19T07:37:21.856Z,1.02
2023-01-19T07:38:22.052Z,1.04
2023-01-19T07:39:22.154Z,1.04
2023-01-19T07:40:24.006Z,1.06
2023-01-19T07:41:22.347Z,1.06
2023-01-19T07:42:22.511Z,1.08
2023-01-19T07:43:22.688Z,1.13
2023-01-19T07:44:22.809Z,1.13
2023-01-19T07:45:22.888Z,1.14
2023-01-19T07:46:23.059Z,1.14
2023-01-19T07:47:23.168Z,1.13
2023-01-19T07:48:23.270Z,1.16
2023-01-19T07:49:23.466Z,1.14
2023-01-19T07:50:23.610Z,1.14
2023-01-19T07:51:23.714Z,1.14
2023-01-19T07:52:23.834Z,1.17
2023-01-19T07:53:24.006Z,1.16
2023-01-19T07:54:24.112Z,1.16
2023-01-19T07:55:24.253Z,1.14
2023-01-19T07:56:24.423Z,1.17
2023-01-19T07:57:24.573Z,1.20
2023-01-19T07:58:24.728Z,1.21
2023-01-19T07:59:24.932Z,1.20
2023-01-19T08:00:25.008Z,1.20
2023-01-19T08:01:25.289Z,1.20
2023-01-19T08:02:25.357Z,1.20
2023-01-19T08:03:25.453Z,1.28
2023-01-19T08:04:25.656Z,1.29
2023-01-19T08:05:25.771Z,1.34
2023-01-19T08:06:25.883Z,1.32
2023-01-19T08:07:26.029Z,1.38
2023-01-19T08:08:26.112Z,1.36
2023-01-19T08:09:26.289Z,1.43
2023-01-19T08:10:26.446Z,1.43
2023-01-19T08:11:26.617Z,1.44
2023-01-19T08:12:26.794Z,1.39
2023-01-19T08:13:26.961Z,1.39
2023-01-19T08:14:27.069Z,1.43
2023-01-19T08:15:27.248Z,1.46
2023-01-19T08:16:27.351Z,1.50
2023-01-19T08:17:27.599Z,1.50
2023-01-19T08:18:27.641Z,1.47
2023-01-19T08:19:29.168Z,1.47
2023-01-19T08:20:27.915Z,1.46
2023-01-19T08:21:27.992Z,1.49
2023-01-19T08:22:28.140Z,1.47
2023-01-19T08:23:28.316Z,1.49
2023-01-19T08:24:28.469Z,1.52
2023-01-19T08:25:28.638Z,1.47
2023-01-19T08:26:28.779Z,1.47
2023-01-19T08:27:28.937Z,1.44
2023-01-19T08:28:29.104Z,1.42
2023-01-19T08:29:29.280Z,1.39
2023-01-19T08:30:29.345Z,1.34
2023-01-19T08:31:29.584Z,1.28
2023-01-19T08:32:29.750Z,1.25
2023-01-19T08:33:29.760Z,1.21
2023-01-19T08:34:29.926Z,1.20
2023-01-19T08:35:30.078Z,1.21
2023-01-19T08:36:30.268Z,1.20
2023-01-19T08:37:30.368Z,1.21
2023-01-19T08:38:30.514Z,1.24
2023-01-19T08:39:30.710Z,1.21
2023-01-19T08:40:30.871Z,1.24
2023-01-19T08:41:31.039Z,1.26
2023-01-19T08:42:31.195Z,1.29
2023-01-19T08:43:31.377Z,1.31
2023-01-19T08:44:31.465Z,1.32
2023-01-19T08:45:31.642Z,1.34
2023-01-19T08:46:31.832Z,1.35
2023-01-19T08:47:32.012Z,1.35
2023-01-19T08:48:32.127Z,1.38
2023-01-19T08:49:32.295Z,1.38
2023-01-19T08:50:32.462Z,1.39
2023-01-19T08:51:32.625Z,1.43
2023-01-19T08:52:32.811Z,1.44
2023-01-19T08:53:32.898Z,1.46
2023-01-19T08:54:33.085Z,1.46
2023-01-19T08:55:33.255Z,1.49
2023-01-19T08:56:33.323Z,1.50
2023-01-19T08:57:33.481Z,1.50
2023-01-19T08:58:33.683Z,1.56
2023-01-19T08:59:33.743Z,1.56
2023-01-19T09:00:33.915Z,1.61
2023-01-19T09:01:34.183Z,1.60
2023-01-19T09:02:34.352Z,1.65
2023-01-19T09:03:34.334Z,1.68
2023-01-19T09:04:34.438Z,1.71
2023-01-19T09:05:34.577Z,1.71
2023-01-19T09:06:34.668Z,1.72
2023-01-19T09:07:35.729Z,1.72
2023-01-19T09:08:34.891Z,1.72
2023-01-19T09:09:35.020Z,1.75
2023-01-19T09:10:35.196Z,1.77
2023-01-19T09:11:35.289Z,1.75
2023-01-19T09:12:35.423Z,1.75
2023-01-19T09:13:35.561Z,1.79
2023-01-19T09:14:35.683Z,1.79
2023-01-19T09:15:35.841Z,1.81
2023-01-19T09:16:35.981Z,1.79
2023-01-19T09:17:36.117Z,1.83
2023-01-19T09:18:36.242Z,1.90
2023-01-19T09:19:36.386Z,1.92
2023-01-19T09:20:36.529Z,1.90
2023-01-19T09:21:36.694Z,1.92
2023-01-19T09:22:37.799Z,1.90
2023-01-19T09:23:37.041Z,1.92
2023-01-19T09:24:37.131Z,1.93
2023-01-19T09:25:37.310Z,2.00
2023-01-19T09:26:37.421Z,2.01
2023-01-19T09:27:37.574Z,2.01
2023-01-19T09:28:37.731Z,2.02
2023-01-19T09:29:37.840Z,2.02
2023-01-19T09:30:38.010Z,2.08
2023-01-19T09:31:38.280Z,2.11
2023-01-19T09:32:38.344Z,2.11
2023-01-19T09:33:38.490Z,2.18
2023-01-19T09:34:38.617Z,2.15
2023-01-19T09:35:38.756Z,2.18
2023-01-19T09:36:38.872Z,2.25
2023-01-19T09:37:39.059Z,2.32
2023-01-19T09:38:39.206Z,2.36
2023-01-19T09:39:39.592Z,2.44
2023-01-19T09:40:41.371Z,2.50
2023-01-19T09:41:39.868Z,2.55
2023-01-19T09:42:39.938Z,2.48
2023-01-19T09:43:40.003Z,2.51
2023-01-19T09:44:40.092Z,2.55
2023-01-19T09:45:40.272Z,2.59
2023-01-19T09:46:40.472Z,2.65
2023-01-19T09:47:40.603Z,2.65
2023-01-19T09:48:40.726Z,2.77
2023-01-19T09:49:40.824Z,2.80
2023-01-19T09:50:42.481Z,2.81
2023-01-19T09:51:41.108Z,2.80
2023-01-19T09:52:41.415Z,2.86
2023-01-19T09:53:41.437Z,2.86
2023-01-19T09:54:41.483Z,2.87
2023-01-19T09:55:41.683Z,2.92
2023-01-19T09:56:41.858Z,2.97
2023-01-19T09:57:41.985Z,2.89
2023-01-19T09:58:42.088Z,2.86
2023-01-19T09:59:42.269Z,2.86
2023-01-19T10:00:42.407Z,2.80
2023-01-19T10:01:42.548Z,2.87
2023-01-19T10:02:42.696Z,2.89
2023-01-19T10:03:42.785Z,2.86
2023-01-19T10:04:42.896Z,2.83
2023-01-19T10:05:43.067Z,2.80
2023-01-19T10:06:43.176Z,2.71
2023-01-19T10:07:43.372Z,2.69
2023-01-19T10:08:43.482Z,2.66
2023-01-19T10:09:43.632Z,2.62
2023-01-19T10:10:43.763Z,2.59
2023-01-19T10:11:52.609Z,2.56
2023-01-19T10:12:45.088Z,2.56
2023-01-19T10:13:44.824Z,2.55
2023-01-19T10:14:44.284Z,2.50
2023-01-19T10:15:44.513Z,2.48
2023-01-19T10:16:44.622Z,2.47
2023-01-19T10:17:44.671Z,2.50
2023-01-19T10:18:44.784Z,2.51
2023-01-19T10:19:46.632Z,2.58
2023-01-19T10:20:45.088Z,2.61
2023-01-19T10:21:45.239Z,2.58
2023-01-19T10:22:45.405Z,2.58
2023-01-19T10:23:45.564Z,2.62
2023-01-19T10:24:45.712Z,2.65
2023-01-19T10:25:45.885Z,2.65
2023-01-19T10:26:46.000Z,2.73
2023-01-19T10:27:46.148Z,2.83
2023-01-19T10:28:46.282Z,2.89
2023-01-19T10:29:46.441Z,2.83
2023-01-19T10:30:46.518Z,2.80
2023-01-19T10:31:46.695Z,2.74
2023-01-19T10:32:46.791Z,2.69
2023-01-19T10:33:46.858Z,2.63
2023-01-19T10:34:47.055Z,2.59
2023-01-19T10:35:47.274Z,2.55
2023-01-19T10:36:47.313Z,2.58
2023-01-19T10:37:47.417Z,2.59
2023-01-19T10:38:47.555Z,2.59
2023-01-19T10:39:47.721Z,2.62
2023-01-19T10:40:47.835Z,2.63
2023-01-19T10:41:47.999Z,2.69
2023-01-19T10:42:48.211Z,2.69
2023-01-19T10:43:48.308Z,2.74
2023-01-19T10:44:48.483Z,2.76
2023-01-19T10:45:48.663Z,2.80
2023-01-19T10:46:48.711Z,2.80
2023-01-19T10:47:48.919Z,2.86
2023-01-19T10:48:49.004Z,2.86
2023-01-19T10:49:49.141Z,2.81
2023-01-19T10:50:49.356Z,2.83
2023-01-19T10:51:49.428Z,2.83
2023-01-19T10:52:49.559Z,2.77
2023-01-19T10:53:49.708Z,2.74
2023-01-19T10:54:49.857Z,2.77
2023-01-19T10:55:49.984Z,2.81
2023-01-19T10:56:50.128Z,2.87
2023-01-19T10:57:50.261Z,2.90
2023-01-19T10:58:50.396Z,3.05
2023-01-19T10:59:50.582Z,3.15
2023-01-19T11:00:50.754Z,3.23
2023-01-19T11:01:50.861Z,3.25
2023-01-19T11:02:51.013Z,3.33
2023-01-19T11:03:51.074Z,3.39
2023-01-19T11:04:51.246Z,3.45
2023-01-19T11:05:51.287Z,3.49
2023-01-19T11:06:51.445Z,3.52
2023-01-19T11:07:51.575Z,3.42
2023-01-19T11:08:51.756Z,3.44
2023-01-19T11:09:51.832Z,3.39
2023-01-19T11:10:51.993Z,3.37
2023-01-19T11:11:52.127Z,3.41
2023-01-19T11:12:52.283Z,3.35
2023-01-19T11:13:52.425Z,3.44
2023-01-19T11:14:52.600Z,3.42
2023-01-19T11:15:52.762Z,3.44
2023-01-19T11:16:52.856Z,3.44
2023-01-19T11:17:52.993Z,3.46
2023-01-19T11:18:53.123Z,3.49
2023-01-19T11:19:53.255Z,3.52
2023-01-19T11:20:53.437Z,3.42
2023-01-19T11:21:53.684Z,3.35
2023-01-19T11:22:53.658Z,3.34
2023-01-19T11:23:53.807Z,3.34
2023-01-19T11:24:54.008Z,3.46
2023-01-19T11:25:54.117Z,3.52
2023-01-19T11:26:54.179Z,3.45
2023-01-19T11:27:54.314Z,3.37
2023-01-19T11:28:54.493Z,3.30
2023-01-19T11:29:54.637Z,3.23
2023-01-19T11:30:54.812Z,3.17
2023-01-19T11:31:54.939Z,3.10
2023-01-19T11:32:55.049Z,3.05
2023-01-19T11:33:55.212Z,3.07
2023-01-19T11:34:55.339Z,3.05
2023-01-19T11:35:55.491Z,3.12
2023-01-19T11:36:55.676Z,3.15
2023-01-19T11:37:55.762Z,3.17
2023-01-19T11:38:55.873Z,3.22
2023-01-19T11:39:56.028Z,3.26
2023-01-19T11:40:56.157Z,3.53
2023-01-19T11:41:56.361Z,3.67
2023-01-19T11:42:56.458Z,3.78
2023-01-19T11:43:56.574Z,3.92
2023-01-19T11:44:56.652Z,4.56
2023-01-19T11:45:56.882Z,4.51
2023-01-19T11:46:56.952Z,4.31
2023-01-19T11:47:57.131Z,4.24
2023-01-19T11:48:57.232Z,4.29
2023-01-19T11:49:57.403Z,4.34
2023-01-19T11:50:57.563Z,4.31
2023-01-19T11:51:57.709Z,4.20
2023-01-19T11:52:57.803Z,4.18
2023-01-19T11:54:09.097Z,4.20
2023-01-19T11:54:58.050Z,4.29
2023-01-19T11:55:58.203Z,4.26
2023-01-19T11:56:58.305Z,4.14
2023-01-19T11:57:58.452Z,3.95
2023-01-19T11:58:58.622Z,3.89
2023-01-19T11:59:58.783Z,3.78
2023-01-19T12:00:58.924Z,3.70
2023-01-19T12:01:59.075Z,3.62
2023-01-19T12:02:59.125Z,3.64
2023-01-19T12:03:59.254Z,3.68
2023-01-19T12:04:59.405Z,3.71
2023-01-19T12:05:59.495Z,3.71
2023-01-19T12:06:59.591Z,3.86
2023-01-19T12:08:01.001Z,3.96
2023-01-19T12:08:59.834Z,4.14
2023-01-19T12:09:59.974Z,4.24
2023-01-19T12:11:00.115Z,4.18
2023-01-19T12:12:00.205Z,4.39
2023-01-19T12:13:01.790Z,4.80
2023-01-19T12:14:00.502Z,4.97
2023-01-19T12:15:00.637Z,5.04
2023-01-19T12:16:00.772Z,5.05
2023-01-19T12:17:00.878Z,5.33
2023-01-19T12:18:01.435Z,5.52
2023-01-19T12:19:01.185Z,5.51
2023-01-19T12:20:01.367Z,5.70
2023-01-19T12:21:03.982Z,5.47
2023-01-19T12:22:01.597Z,5.19
2023-01-19T12:23:01.671Z,4.99
2023-01-19T12:24:01.892Z,4.65
2023-01-19T12:25:01.950Z,4.39
2023-01-19T12:26:02.078Z,4.43
2023-01-19T12:27:02.235Z,4.42
2023-01-19T12:28:02.381Z,4.57
2023-01-19T12:29:02.551Z,4.43
2023-01-19T12:30:02.725Z,4.54
2023-01-19T12:31:02.944Z,4.61
2023-01-19T12:32:03.122Z,4.50
2023-01-19T12:33:03.141Z,4.43
2023-01-19T12:34:03.282Z,4.29
2023-01-19T12:35:03.445Z,4.46
2023-01-19T12:36:03.611Z,4.69
2023-01-19T12:37:03.771Z,4.74
2023-01-19T12:38:03.874Z,4.87
2023-01-19T12:39:04.038Z,5.69
2023-01-19T12:40:04.129Z,5.77
2023-01-19T12:41:04.264Z,5.67
2023-01-19T12:42:04.417Z,5.69
2023-01-19T12:43:04.597Z,5.60
2023-01-19T12:44:05.062Z,5.56
2023-01-19T12:45:04.800Z,5.59
2023-01-19T12:46:04.919Z,5.45
2023-01-19T12:47:05.030Z,5.11
2023-01-19T12:48:05.169Z,4.97
2023-01-19T12:49:05.318Z,5.41
2023-01-19T12:50:05.437Z,5.63
2023-01-19T12:51:05.588Z,6.50
2023-01-19T12:52:05.773Z,6.14
2023-01-19T12:53:16.007Z,5.60
2023-01-19T12:54:06.337Z,5.65
2023-01-19T12:55:06.137Z,5.30
2023-01-19T12:56:06.198Z,5.05
2023-01-19T12:57:06.367Z,5.49
2023-01-19T12:58:06.534Z,5.20
2023-01-19T12:59:06.650Z,5.08
2023-01-19T13:00:06.811Z,5.02
2023-01-19T13:01:07.035Z,5.09
2023-01-19T13:02:07.129Z,5.12
2023-01-19T13:03:07.326Z,5.02
2023-01-19T13:04:07.721Z,5.24
2023-01-19T13:05:07.533Z,5.22
2023-01-19T13:06:07.669Z,5.26
2023-01-19T13:07:07.856Z,5.09
2023-01-19T13:08:07.999Z,4.93
2023-01-19T13:09:08.075Z,4.72
2023-01-19T13:10:08.279Z,4.64
2023-01-19T13:11:08.417Z,4.64
2023-01-19T13:12:08.559Z,5.19
2023-01-19T13:13:08.730Z,6.25
2023-01-19T13:14:08.800Z,6.40
2023-01-19T13:15:08.947Z,6.02
2023-01-19T13:16:09.153Z,5.75
2023-01-19T13:17:09.243Z,5.59
2023-01-19T13:18:09.377Z,6.08
2023-01-19T13:19:09.489Z,5.96
2023-01-19T13:20:09.574Z,5.58